WetterOnline ( https://www.wetteronline.ch )

Wetter aktuell Leer

Aktuelles Wetter: Emden (5m)

6-stündlich | Neueste Meldungen
Ortszeit Temperatur Wetter
Do, 23.01. 1:00 4.0° C leicht bewölkt
Mi, 22.01. 19:00 5.4° C bedeckt
Mi, 22.01. 13:00 8.0° C bewölkt
Mi, 22.01. 7:00 5.8° C bedeckt
Mi, 22.01. 1:00 4.4° C bedeckt
Di, 21.01. 19:00 4.9° C bedeckt
Di, 21.01. 13:00 3.8° C bedeckt
Di, 21.01. 7:00 3.0° C bedeckt
Ortszeit Temperatur Wetter
Do, 23.01. 6:30 -0.1° C Nebel
Do, 23.01. 6:20 -0.1° C Nebel
Do, 23.01. 6:10 -0.1° C Nebel
Do, 23.01. 6:00 -0.0° C Nebel
Do, 23.01. 5:50 -0.0° C Nebel
Do, 23.01. 5:40 -0.1° C Nebel
Do, 23.01. 5:30 -0.0° C Nebel
Do, 23.01. 5:00 0.1° C Nebel
Do, 23.01. 3:00 1.2° C Nebel
Ortszeit Relative Feuchte Sichtweite
Do, 23.01. 1:00 100% 5.0 km
Mi, 22.01. 19:00 93% 45 km
Mi, 22.01. 13:00 86% 65 km
Mi, 22.01. 7:00 99% 6 km
Mi, 22.01. 1:00 94% 5.0 km
Di, 21.01. 19:00 93% 7 km
Di, 21.01. 13:00 97% 4.0 km
Di, 21.01. 7:00 96% 4.0 km
Ortszeit Relative Feuchte Sichtweite
Do, 23.01. 6:30 100% 100 m
Do, 23.01. 6:20 100% -
Do, 23.01. 6:10 100% -
Do, 23.01. 6:00 100% 100 m
Do, 23.01. 5:50 100% -
Do, 23.01. 5:40 100% -
Do, 23.01. 5:30 100% 100 m
Do, 23.01. 5:00 100% 0.2 km
Do, 23.01. 3:00 100% 0.3 km
Ortszeit Niederschlagsmenge Niederschlagsart
Do, 23.01. 1:00 0.0 l/m2 in 6 Std. -
Mi, 22.01. 19:00 0.1 l/m2 in 12 Std. -
Mi, 22.01. 13:00 0.1 l/m2 in 6 Std. Sprühregen
Mi, 22.01. 7:00 0.1 l/m2 in 12 Std. Sprühregen
Mi, 22.01. 1:00 0.0 l/m2 in 6 Std. -
Di, 21.01. 19:00 0.0 l/m2 in 12 Std. -
Di, 21.01. 13:00 0.0 l/m2 in 6 Std. -
Di, 21.01. 7:00 0.0 l/m2 in 12 Std. -
Ortszeit Niederschlagsmenge Niederschlagsart
Do, 23.01. 6:30 0.0 l/m2 in 1 Std. -
Do, 23.01. 6:20 keine Meldung -
Do, 23.01. 6:10 keine Meldung -
Do, 23.01. 6:00 0.0 l/m2 in 1 Std. -
Do, 23.01. 5:50 keine Meldung -
Do, 23.01. 5:40 keine Meldung -
Do, 23.01. 5:30 0.0 l/m2 in 1 Std. -
Do, 23.01. 5:00 0.0 l/m2 in 1 Std. -
Do, 23.01. 3:00 keine Meldung -
Ortszeit Stärke Spitze Richtung
km/h Bft. km/h Grad Sektor
Do, 23.01. 1:00 6 1 9 230° SW
Mi, 22.01. 19:00 6 1 28 290° W
Mi, 22.01. 13:00 14 3 22 310° NW
Mi, 22.01. 7:00 17 3 28 260° W
Mi, 22.01. 1:00 11 2 22 230° SW
Di, 21.01. 19:00 14 3 25 260° W
Di, 21.01. 13:00 13 3 30 240° SW
Di, 21.01. 7:00 11 2 25 220° SW
Ortszeit Stärke Spitze Richtung
km/h Bft. km/h Grad Sektor
Do, 23.01. 6:30 2 1 4 10° N
Do, 23.01. 6:20 2 1 - 10° N
Do, 23.01. 6:10 4 1 - 70° O
Do, 23.01. 6:00 2 1 7 270° W
Do, 23.01. 5:50 2 1 - 270° W
Do, 23.01. 5:40 4 1 - 260° W
Do, 23.01. 5:30 4 1 7 290° W
Do, 23.01. 5:00 4 1 11 240° SW
Do, 23.01. 3:00 4 1 7 170° S
Ortszeit Untergrenze Bedeckung Gattung
total tief tief mittel hoch
Do, 23.01. 1:00 600 m 3/8 3/8 - - -
Mi, 22.01. 19:00 780 m 8/8 8/8 - - -
Mi, 22.01. 13:00 330 m 7/8 7/8 - - -
Mi, 22.01. 7:00 60 m 8/8 8/8 - - -
Mi, 22.01. 1:00 120 m 8/8 8/8 - - -
Di, 21.01. 19:00 300 m 8/8 8/8 - - -
Di, 21.01. 13:00 90 m 8/8 8/8 - - -
Di, 21.01. 7:00 90 m 8/8 8/8 - - -
Ortszeit Bedeckungsgrad in Achtel und Wolkenuntergrenze
Do, 23.01. 6:30 8(<30m)
Do, 23.01. 6:20 8(<30m)
Do, 23.01. 6:10 8(<30m)
Do, 23.01. 6:00 8(<30m)
Do, 23.01. 5:50 8(<30m)
Do, 23.01. 5:40 8(<30m)
Do, 23.01. 5:30 8(<30m)
Do, 23.01. 5:00 8(<30m)
Do, 23.01. 3:00 keine Wolken
Ortszeit Luftdruck NN (hPa) Tendenz (hPa in 3 Std.)
Do, 23.01. 1:00 1036 + 0,4
Mi, 22.01. 19:00 1036 + 1,1
Mi, 22.01. 13:00 1035 0,0
Mi, 22.01. 7:00 1034 - 1,1
Mi, 22.01. 1:00 1036 - 1,0
Di, 21.01. 19:00 1038 - 0,9
Di, 21.01. 13:00 1040 - 0,9
Di, 21.01. 7:00 1041 - 0,7
Ortszeit Luftdruck NN (hPa) Tendenz (hPa in 3 Std.)
Do, 23.01. 6:30 1034 - 1,1
Do, 23.01. 6:20 1034 keine Meldung
Do, 23.01. 6:10 1035 keine Meldung
Do, 23.01. 6:00 1035 - 1,1
Do, 23.01. 5:50 1035 keine Meldung
Do, 23.01. 5:40 1035 keine Meldung
Do, 23.01. 5:30 1035 - 1,0
Do, 23.01. 5:00 1035 - 0,9
Do, 23.01. 3:00 1036 - 0,7
Ortszeit Schneehöhe (cm)
Do, 23.01. 1:00 0
Mi, 22.01. 19:00 0
Mi, 22.01. 13:00 0
Mi, 22.01. 7:00 0
Mi, 22.01. 1:00 0
Di, 21.01. 19:00 0
Di, 21.01. 13:00 0
Di, 21.01. 7:00 0
Ortszeit Schneehöhe (cm)
Do, 23.01. 6:30 0
Do, 23.01. 6:20 0
Do, 23.01. 6:10 0
Do, 23.01. 6:00 0
Do, 23.01. 5:50 0
Do, 23.01. 5:40 0
Do, 23.01. 5:30 0
Do, 23.01. 5:00 0
Do, 23.01. 3:00 -
Link zu dieser Seite / Seite empfehlen

Das Wetter in ...